sensor_id;sensor_type;location;lat;lon;timestamp;P1;durP1;ratioP1;P2;durP2;ratioP2
56419;SDS011;42323;52.170;7.538;2023-06-22T00:01:13;11.20;;;7.60;;
56419;SDS011;42323;52.170;7.538;2023-06-22T00:03:40;9.60;;;7.70;;
56419;SDS011;42323;52.170;7.538;2023-06-22T00:06:06;8.15;;;6.88;;
56419;SDS011;42323;52.170;7.538;2023-06-22T00:08:33;9.63;;;7.63;;
56419;SDS011;42323;52.170;7.538;2023-06-22T00:11:00;10.37;;;7.80;;
56419;SDS011;42323;52.170;7.538;2023-06-22T00:13:26;8.55;;;7.05;;
56419;SDS011;42323;52.170;7.538;2023-06-22T00:15:53;10.10;;;7.60;;
56419;SDS011;42323;52.170;7.538;2023-06-22T00:18:19;9.48;;;7.05;;
56419;SDS011;42323;52.170;7.538;2023-06-22T00:20:46;9.15;;;7.60;;
56419;SDS011;42323;52.170;7.538;2023-06-22T00:23:13;9.05;;;7.68;;
56419;SDS011;42323;52.170;7.538;2023-06-22T00:25:43;9.63;;;7.82;;
56419;SDS011;42323;52.170;7.538;2023-06-22T00:28:10;9.48;;;7.72;;
56419;SDS011;42323;52.170;7.538;2023-06-22T00:30:36;8.75;;;7.28;;
56419;SDS011;42323;52.170;7.538;2023-06-22T00:33:03;9.95;;;7.50;;
56419;SDS011;42323;52.170;7.538;2023-06-22T00:35:29;10.88;;;7.88;;
56419;SDS011;42323;52.170;7.538;2023-06-22T00:37:56;10.43;;;7.47;;
56419;SDS011;42323;52.170;7.538;2023-06-22T00:40:27;8.70;;;7.13;;
56419;SDS011;42323;52.170;7.538;2023-06-22T00:42:55;10.40;;;8.05;;
56419;SDS011;42323;52.170;7.538;2023-06-22T00:45:23;9.05;;;7.30;;
56419;SDS011;42323;52.170;7.538;2023-06-22T00:47:53;10.05;;;7.85;;
56419;SDS011;42323;52.170;7.538;2023-06-22T00:50:25;8.32;;;6.95;;
56419;SDS011;42323;52.170;7.538;2023-06-22T00:52:57;9.55;;;7.70;;
56419;SDS011;42323;52.170;7.538;2023-06-22T00:55:26;9.70;;;7.40;;
56419;SDS011;42323;52.170;7.538;2023-06-22T00:57:54;10.05;;;7.40;;
56419;SDS011;42323;52.170;7.538;2023-06-22T01:00:23;10.35;;;7.57;;
56419;SDS011;42323;52.170;7.538;2023-06-22T01:02:51;8.15;;;6.65;;
56419;SDS011;42323;52.170;7.538;2023-06-22T01:05:21;9.02;;;7.05;;
56419;SDS011;42323;52.170;7.538;2023-06-22T01:13:22;9.18;;;7.40;;
56419;SDS011;42323;52.170;7.538;2023-06-22T01:16:18;8.65;;;7.10;;
56419;SDS011;42323;52.170;7.538;2023-06-22T01:18:53;9.30;;;6.95;;
56419;SDS011;42323;52.170;7.538;2023-06-22T01:21:23;9.13;;;6.77;;
56419;SDS011;42323;52.170;7.538;2023-06-22T01:26:30;7.70;;;6.47;;
56419;SDS011;42323;52.170;7.538;2023-06-22T01:29:04;8.63;;;6.50;;
56419;SDS011;42323;52.170;7.538;2023-06-22T01:31:33;8.77;;;7.05;;
56419;SDS011;42323;52.170;7.538;2023-06-22T01:34:03;8.13;;;6.57;;
56419;SDS011;42323;52.170;7.538;2023-06-22T01:36:32;8.97;;;6.63;;
56419;SDS011;42323;52.170;7.538;2023-06-22T01:39:00;9.15;;;6.60;;
56419;SDS011;42323;52.170;7.538;2023-06-22T01:41:28;8.18;;;6.60;;
56419;SDS011;42323;52.170;7.538;2023-06-22T01:43:56;9.48;;;6.90;;
56419;SDS011;42323;52.170;7.538;2023-06-22T01:46:23;7.88;;;6.38;;
56419;SDS011;42323;52.170;7.538;2023-06-22T01:48:50;8.27;;;6.32;;
56419;SDS011;42323;52.170;7.538;2023-06-22T01:51:17;9.43;;;6.87;;
56419;SDS011;42323;52.170;7.538;2023-06-22T01:53:43;9.95;;;7.35;;
56419;SDS011;42323;52.170;7.538;2023-06-22T01:56:10;11.02;;;7.43;;
56419;SDS011;42323;52.170;7.538;2023-06-22T01:58:38;8.60;;;6.80;;
56419;SDS011;42323;52.170;7.538;2023-06-22T02:01:12;9.15;;;6.80;;
56419;SDS011;42323;52.170;7.538;2023-06-22T02:03:44;9.40;;;7.95;;
56419;SDS011;42323;52.170;7.538;2023-06-22T02:06:17;8.83;;;6.93;;
56419;SDS011;42323;52.170;7.538;2023-06-22T02:08:51;9.60;;;7.50;;
56419;SDS011;42323;52.170;7.538;2023-06-22T02:11:23;10.57;;;7.93;;
56419;SDS011;42323;52.170;7.538;2023-06-22T02:13:53;9.05;;;7.57;;
56419;SDS011;42323;52.170;7.538;2023-06-22T02:16:21;9.45;;;7.20;;
56419;SDS011;42323;52.170;7.538;2023-06-22T02:18:48;9.73;;;7.30;;
56419;SDS011;42323;52.170;7.538;2023-06-22T02:21:19;10.02;;;7.53;;
56419;SDS011;42323;52.170;7.538;2023-06-22T02:23:47;8.63;;;6.75;;
56419;SDS011;42323;52.170;7.538;2023-06-22T02:26:15;9.07;;;7.00;;
56419;SDS011;42323;52.170;7.538;2023-06-22T02:28:43;9.23;;;7.25;;
56419;SDS011;42323;52.170;7.538;2023-06-22T02:31:10;9.18;;;7.38;;
56419;SDS011;42323;52.170;7.538;2023-06-22T02:33:37;9.48;;;7.85;;
56419;SDS011;42323;52.170;7.538;2023-06-22T02:36:04;12.10;;;7.82;;
56419;SDS011;42323;52.170;7.538;2023-06-22T02:38:31;9.67;;;8.10;;
56419;SDS011;42323;52.170;7.538;2023-06-22T02:41:02;10.30;;;7.72;;
56419;SDS011;42323;52.170;7.538;2023-06-22T02:43:29;10.33;;;7.97;;
56419;SDS011;42323;52.170;7.538;2023-06-22T02:45:55;9.37;;;7.93;;
56419;SDS011;42323;52.170;7.538;2023-06-22T02:48:22;10.43;;;7.57;;
56419;SDS011;42323;52.170;7.538;2023-06-22T02:50:48;10.45;;;7.90;;
56419;SDS011;42323;52.170;7.538;2023-06-22T02:53:15;8.95;;;7.32;;
56419;SDS011;42323;52.170;7.538;2023-06-22T02:55:42;9.73;;;7.47;;
56419;SDS011;42323;52.170;7.538;2023-06-22T02:58:08;9.63;;;7.25;;
56419;SDS011;42323;52.170;7.538;2023-06-22T03:00:35;9.00;;;7.13;;
56419;SDS011;42323;52.170;7.538;2023-06-22T03:03:01;9.23;;;7.27;;
56419;SDS011;42323;52.170;7.538;2023-06-22T03:05:28;9.85;;;7.97;;
56419;SDS011;42323;52.170;7.538;2023-06-22T03:07:55;8.82;;;7.47;;
56419;SDS011;42323;52.170;7.538;2023-06-22T03:10:21;9.30;;;7.53;;
56419;SDS011;42323;52.170;7.538;2023-06-22T03:12:48;9.23;;;7.13;;
56419;SDS011;42323;52.170;7.538;2023-06-22T03:15:14;9.40;;;7.30;;
56419;SDS011;42323;52.170;7.538;2023-06-22T03:17:41;9.40;;;7.72;;
56419;SDS011;42323;52.170;7.538;2023-06-22T03:20:08;11.23;;;8.03;;
56419;SDS011;42323;52.170;7.538;2023-06-22T03:22:37;10.57;;;8.10;;
56419;SDS011;42323;52.170;7.538;2023-06-22T03:25:05;11.13;;;8.30;;
56419;SDS011;42323;52.170;7.538;2023-06-22T03:27:40;9.63;;;7.77;;
56419;SDS011;42323;52.170;7.538;2023-06-22T03:30:08;9.27;;;7.70;;
56419;SDS011;42323;52.170;7.538;2023-06-22T03:32:36;9.80;;;7.43;;
56419;SDS011;42323;52.170;7.538;2023-06-22T03:35:06;8.80;;;7.53;;
56419;SDS011;42323;52.170;7.538;2023-06-22T03:37:33;10.48;;;7.97;;
56419;SDS011;42323;52.170;7.538;2023-06-22T03:39:59;8.93;;;7.45;;
56419;SDS011;42323;52.170;7.538;2023-06-22T03:42:26;9.43;;;7.38;;
56419;SDS011;42323;52.170;7.538;2023-06-22T03:44:53;9.73;;;7.40;;
56419;SDS011;42323;52.170;7.538;2023-06-22T03:47:19;9.10;;;6.90;;
56419;SDS011;42323;52.170;7.538;2023-06-22T03:49:46;10.48;;;7.53;;
56419;SDS011;42323;52.170;7.538;2023-06-22T03:52:12;8.98;;;7.20;;
56419;SDS011;42323;52.170;7.538;2023-06-22T03:54:39;9.13;;;7.30;;
56419;SDS011;42323;52.170;7.538;2023-06-22T03:57:06;9.15;;;7.18;;
56419;SDS011;42323;52.170;7.538;2023-06-22T03:59:32;10.25;;;7.43;;
56419;SDS011;42323;52.170;7.538;2023-06-22T04:01:59;9.23;;;7.30;;
56419;SDS011;42323;52.170;7.538;2023-06-22T04:04:26;9.02;;;6.93;;
56419;SDS011;42323;52.170;7.538;2023-06-22T04:06:54;8.65;;;7.18;;
56419;SDS011;42323;52.170;7.538;2023-06-22T04:09:21;8.80;;;6.57;;
56419;SDS011;42323;52.170;7.538;2023-06-22T04:11:48;8.80;;;6.70;;
56419;SDS011;42323;52.170;7.538;2023-06-22T04:14:14;9.30;;;7.35;;
56419;SDS011;42323;52.170;7.538;2023-06-22T04:16:41;8.38;;;6.68;;
56419;SDS011;42323;52.170;7.538;2023-06-22T04:19:07;8.73;;;6.63;;
56419;SDS011;42323;52.170;7.538;2023-06-22T04:21:40;8.05;;;6.53;;
56419;SDS011;42323;52.170;7.538;2023-06-22T04:24:06;9.87;;;6.57;;
56419;SDS011;42323;52.170;7.538;2023-06-22T04:26:33;7.95;;;6.55;;
56419;SDS011;42323;52.170;7.538;2023-06-22T04:29:03;8.25;;;6.35;;
56419;SDS011;42323;52.170;7.538;2023-06-22T04:31:32;7.63;;;6.32;;
56419;SDS011;42323;52.170;7.538;2023-06-22T04:34:07;7.72;;;5.75;;
56419;SDS011;42323;52.170;7.538;2023-06-22T04:36:38;8.82;;;6.00;;
56419;SDS011;42323;52.170;7.538;2023-06-22T04:39:07;7.65;;;5.90;;
56419;SDS011;42323;52.170;7.538;2023-06-22T04:41:36;7.97;;;6.10;;
56419;SDS011;42323;52.170;7.538;2023-06-22T04:44:13;8.48;;;6.28;;
56419;SDS011;42323;52.170;7.538;2023-06-22T04:46:51;8.30;;;6.23;;
56419;SDS011;42323;52.170;7.538;2023-06-22T04:49:20;8.60;;;6.50;;
56419;SDS011;42323;52.170;7.538;2023-06-22T04:51:48;7.78;;;6.50;;
56419;SDS011;42323;52.170;7.538;2023-06-22T04:54:16;8.38;;;5.55;;
56419;SDS011;42323;52.170;7.538;2023-06-22T04:56:42;8.63;;;6.20;;
56419;SDS011;42323;52.170;7.538;2023-06-22T04:59:09;7.88;;;6.13;;
56419;SDS011;42323;52.170;7.538;2023-06-22T05:01:39;8.00;;;6.07;;
56419;SDS011;42323;52.170;7.538;2023-06-22T05:04:05;7.32;;;5.90;;
56419;SDS011;42323;52.170;7.538;2023-06-22T05:06:33;7.67;;;5.90;;
56419;SDS011;42323;52.170;7.538;2023-06-22T05:08:59;8.63;;;6.25;;
56419;SDS011;42323;52.170;7.538;2023-06-22T05:11:26;7.43;;;5.97;;
56419;SDS011;42323;52.170;7.538;2023-06-22T05:13:53;8.38;;;6.13;;
56419;SDS011;42323;52.170;7.538;2023-06-22T05:16:20;8.35;;;5.57;;
56419;SDS011;42323;52.170;7.538;2023-06-22T05:18:51;8.10;;;6.03;;
56419;SDS011;42323;52.170;7.538;2023-06-22T05:21:23;8.02;;;5.75;;
56419;SDS011;42323;52.170;7.538;2023-06-22T05:23:51;7.33;;;5.47;;
56419;SDS011;42323;52.170;7.538;2023-06-22T05:26:19;7.88;;;5.70;;
56419;SDS011;42323;52.170;7.538;2023-06-22T05:28:47;6.53;;;5.18;;
56419;SDS011;42323;52.170;7.538;2023-06-22T05:31:14;7.75;;;5.72;;
56419;SDS011;42323;52.170;7.538;2023-06-22T05:33:42;6.65;;;5.43;;
56419;SDS011;42323;52.170;7.538;2023-06-22T05:36:09;7.07;;;5.72;;
56419;SDS011;42323;52.170;7.538;2023-06-22T05:38:36;8.03;;;5.60;;
56419;SDS011;42323;52.170;7.538;2023-06-22T05:41:03;8.32;;;5.82;;
56419;SDS011;42323;52.170;7.538;2023-06-22T05:43:30;7.53;;;5.47;;
56419;SDS011;42323;52.170;7.538;2023-06-22T05:45:57;7.57;;;5.78;;
56419;SDS011;42323;52.170;7.538;2023-06-22T05:48:24;7.40;;;5.80;;
56419;SDS011;42323;52.170;7.538;2023-06-22T05:50:51;8.93;;;6.30;;
56419;SDS011;42323;52.170;7.538;2023-06-22T05:53:17;7.68;;;5.38;;
56419;SDS011;42323;52.170;7.538;2023-06-22T05:55:44;8.02;;;5.68;;
56419;SDS011;42323;52.170;7.538;2023-06-22T05:58:11;6.65;;;5.47;;
56419;SDS011;42323;52.170;7.538;2023-06-22T06:00:39;7.47;;;5.90;;
56419;SDS011;42323;52.170;7.538;2023-06-22T06:03:07;9.18;;;6.07;;
56419;SDS011;42323;52.170;7.538;2023-06-22T06:05:35;7.93;;;6.30;;
56419;SDS011;42323;52.170;7.538;2023-06-22T06:08:03;8.53;;;6.63;;
56419;SDS011;42323;52.170;7.538;2023-06-22T06:10:31;8.77;;;6.38;;
56419;SDS011;42323;52.170;7.538;2023-06-22T06:12:59;8.65;;;6.57;;
56419;SDS011;42323;52.170;7.538;2023-06-22T06:15:31;7.25;;;5.78;;
56419;SDS011;42323;52.170;7.538;2023-06-22T06:20:40;7.38;;;6.05;;
56419;SDS011;42323;52.170;7.538;2023-06-22T06:23:10;7.70;;;6.30;;
56419;SDS011;42323;52.170;7.538;2023-06-22T06:25:39;6.70;;;5.60;;
56419;SDS011;42323;52.170;7.538;2023-06-22T06:28:27;8.60;;;6.53;;
56419;SDS011;42323;52.170;7.538;2023-06-22T06:31:00;8.38;;;6.70;;
56419;SDS011;42323;52.170;7.538;2023-06-22T06:33:27;8.25;;;6.15;;
56419;SDS011;42323;52.170;7.538;2023-06-22T06:35:57;7.53;;;5.78;;
56419;SDS011;42323;52.170;7.538;2023-06-22T06:38:25;7.13;;;6.13;;
56419;SDS011;42323;52.170;7.538;2023-06-22T06:40:52;7.60;;;6.25;;
56419;SDS011;42323;52.170;7.538;2023-06-22T06:43:38;8.65;;;6.45;;
56419;SDS011;42323;52.170;7.538;2023-06-22T06:46:09;9.48;;;6.20;;
56419;SDS011;42323;52.170;7.538;2023-06-22T06:48:36;8.45;;;6.00;;
56419;SDS011;42323;52.170;7.538;2023-06-22T06:51:23;7.32;;;5.80;;
56419;SDS011;42323;52.170;7.538;2023-06-22T06:53:59;7.35;;;6.43;;
56419;SDS011;42323;52.170;7.538;2023-06-22T06:56:29;7.68;;;6.30;;
56419;SDS011;42323;52.170;7.538;2023-06-22T06:58:57;7.75;;;6.00;;
56419;SDS011;42323;52.170;7.538;2023-06-22T07:01:25;6.93;;;5.75;;
56419;SDS011;42323;52.170;7.538;2023-06-22T07:03:51;7.35;;;6.20;;
56419;SDS011;42323;52.170;7.538;2023-06-22T07:06:20;7.70;;;6.00;;
56419;SDS011;42323;52.170;7.538;2023-06-22T07:09:00;7.43;;;5.97;;
56419;SDS011;42323;52.170;7.538;2023-06-22T07:11:27;8.25;;;6.03;;
56419;SDS011;42323;52.170;7.538;2023-06-22T07:13:59;8.23;;;6.00;;
56419;SDS011;42323;52.170;7.538;2023-06-22T07:16:28;7.50;;;5.90;;
56419;SDS011;42323;52.170;7.538;2023-06-22T07:19:02;7.67;;;6.30;;
56419;SDS011;42323;52.170;7.538;2023-06-22T07:21:35;8.75;;;7.07;;
56419;SDS011;42323;52.170;7.538;2023-06-22T07:24:01;7.57;;;5.97;;
56419;SDS011;42323;52.170;7.538;2023-06-22T07:26:28;7.90;;;6.32;;
56419;SDS011;42323;52.170;7.538;2023-06-22T07:29:03;8.90;;;6.10;;
56419;SDS011;42323;52.170;7.538;2023-06-22T07:31:49;7.50;;;6.20;;
56419;SDS011;42323;52.170;7.538;2023-06-22T07:34:18;7.95;;;6.18;;
56419;SDS011;42323;52.170;7.538;2023-06-22T07:36:45;8.03;;;6.97;;
56419;SDS011;42323;52.170;7.538;2023-06-22T07:39:12;8.82;;;6.70;;
56419;SDS011;42323;52.170;7.538;2023-06-22T07:41:42;9.57;;;7.20;;
56419;SDS011;42323;52.170;7.538;2023-06-22T07:44:09;8.20;;;5.95;;
56419;SDS011;42323;52.170;7.538;2023-06-22T07:46:38;8.68;;;6.38;;
56419;SDS011;42323;52.170;7.538;2023-06-22T07:49:05;8.50;;;6.22;;
56419;SDS011;42323;52.170;7.538;2023-06-22T07:51:36;7.75;;;6.50;;
56419;SDS011;42323;52.170;7.538;2023-06-22T07:54:05;9.48;;;7.25;;
56419;SDS011;42323;52.170;7.538;2023-06-22T07:56:32;7.72;;;6.72;;
56419;SDS011;42323;52.170;7.538;2023-06-22T07:58:59;7.97;;;6.93;;
56419;SDS011;42323;52.170;7.538;2023-06-22T08:01:27;8.00;;;6.53;;
56419;SDS011;42323;52.170;7.538;2023-06-22T08:03:55;7.38;;;5.85;;
56419;SDS011;42323;52.170;7.538;2023-06-22T08:06:21;7.07;;;6.18;;
56419;SDS011;42323;52.170;7.538;2023-06-22T08:08:49;6.57;;;5.77;;
56419;SDS011;42323;52.170;7.538;2023-06-22T08:11:18;6.43;;;5.50;;
56419;SDS011;42323;52.170;7.538;2023-06-22T08:14:05;7.55;;;5.70;;
56419;SDS011;42323;52.170;7.538;2023-06-22T08:16:35;8.68;;;6.03;;
56419;SDS011;42323;52.170;7.538;2023-06-22T08:19:12;8.18;;;6.80;;
56419;SDS011;42323;52.170;7.538;2023-06-22T08:21:38;8.68;;;6.70;;
56419;SDS011;42323;52.170;7.538;2023-06-22T08:24:05;8.13;;;6.30;;
56419;SDS011;42323;52.170;7.538;2023-06-22T08:26:34;7.50;;;6.10;;
56419;SDS011;42323;52.170;7.538;2023-06-22T08:34:58;7.95;;;6.50;;
56419;SDS011;42323;52.170;7.538;2023-06-22T08:38:12;6.88;;;5.55;;
56419;SDS011;42323;52.170;7.538;2023-06-22T08:40:42;8.25;;;5.95;;
56419;SDS011;42323;52.170;7.538;2023-06-22T08:43:10;7.57;;;6.20;;
56419;SDS011;42323;52.170;7.538;2023-06-22T08:45:36;6.90;;;5.78;;
56419;SDS011;42323;52.170;7.538;2023-06-22T08:48:06;8.32;;;6.82;;
56419;SDS011;42323;52.170;7.538;2023-06-22T08:50:34;7.35;;;6.55;;
56419;SDS011;42323;52.170;7.538;2023-06-22T08:53:03;9.10;;;7.10;;
56419;SDS011;42323;52.170;7.538;2023-06-22T08:55:30;8.45;;;7.10;;
56419;SDS011;42323;52.170;7.538;2023-06-22T08:58:01;7.68;;;6.30;;
56419;SDS011;42323;52.170;7.538;2023-06-22T09:00:41;8.35;;;7.05;;
56419;SDS011;42323;52.170;7.538;2023-06-22T09:03:07;8.38;;;6.50;;
56419;SDS011;42323;52.170;7.538;2023-06-22T09:05:34;8.87;;;7.20;;
56419;SDS011;42323;52.170;7.538;2023-06-22T09:08:04;9.75;;;7.13;;
56419;SDS011;42323;52.170;7.538;2023-06-22T09:10:46;8.68;;;6.80;;
56419;SDS011;42323;52.170;7.538;2023-06-22T09:13:16;7.95;;;6.95;;
56419;SDS011;42323;52.170;7.538;2023-06-22T09:15:43;7.22;;;6.00;;
56419;SDS011;42323;52.170;7.538;2023-06-22T09:18:12;7.75;;;6.45;;
56419;SDS011;42323;52.170;7.538;2023-06-22T09:20:40;8.75;;;6.70;;
56419;SDS011;42323;52.170;7.538;2023-06-22T09:23:07;7.53;;;5.90;;
56419;SDS011;42323;52.170;7.538;2023-06-22T09:25:35;7.32;;;6.13;;
56419;SDS011;42323;52.170;7.538;2023-06-22T09:28:03;7.40;;;5.93;;
56419;SDS011;42323;52.170;7.538;2023-06-22T09:30:30;5.93;;;5.28;;
56419;SDS011;42323;52.170;7.538;2023-06-22T09:32:57;7.25;;;5.70;;
56419;SDS011;42323;52.170;7.538;2023-06-22T09:35:24;7.13;;;5.87;;
56419;SDS011;42323;52.170;7.538;2023-06-22T09:37:51;6.25;;;5.38;;
56419;SDS011;42323;52.170;7.538;2023-06-22T09:40:19;7.13;;;5.20;;
56419;SDS011;42323;52.170;7.538;2023-06-22T09:42:46;5.88;;;5.28;;
56419;SDS011;42323;52.170;7.538;2023-06-22T09:45:13;6.63;;;5.93;;
56419;SDS011;42323;52.170;7.538;2023-06-22T09:47:39;7.95;;;6.75;;
56419;SDS011;42323;52.170;7.538;2023-06-22T09:50:06;6.85;;;5.82;;
56419;SDS011;42323;52.170;7.538;2023-06-22T09:52:34;8.93;;;6.80;;
56419;SDS011;42323;52.170;7.538;2023-06-22T09:55:13;8.07;;;6.73;;
56419;SDS011;42323;52.170;7.538;2023-06-22T09:57:45;6.57;;;5.50;;
56419;SDS011;42323;52.170;7.538;2023-06-22T10:00:12;7.82;;;6.68;;
56419;SDS011;42323;52.170;7.538;2023-06-22T10:02:43;7.17;;;6.03;;
56419;SDS011;42323;52.170;7.538;2023-06-22T10:05:10;8.17;;;6.20;;
56419;SDS011;42323;52.170;7.538;2023-06-22T10:07:37;8.77;;;6.80;;
56419;SDS011;42323;52.170;7.538;2023-06-22T10:10:08;8.38;;;6.50;;
56419;SDS011;42323;52.170;7.538;2023-06-22T10:12:42;9.63;;;6.70;;
56419;SDS011;42323;52.170;7.538;2023-06-22T10:15:12;8.50;;;7.00;;
56419;SDS011;42323;52.170;7.538;2023-06-22T10:17:39;7.45;;;6.43;;
56419;SDS011;42323;52.170;7.538;2023-06-22T10:20:06;7.95;;;6.57;;
56419;SDS011;42323;52.170;7.538;2023-06-22T10:22:40;8.60;;;6.87;;
56419;SDS011;42323;52.170;7.538;2023-06-22T10:25:07;8.90;;;7.53;;
56419;SDS011;42323;52.170;7.538;2023-06-22T10:27:35;8.60;;;7.10;;
56419;SDS011;42323;52.170;7.538;2023-06-22T10:30:02;8.55;;;6.80;;
56419;SDS011;42323;52.170;7.538;2023-06-22T10:32:28;9.18;;;7.22;;
56419;SDS011;42323;52.170;7.538;2023-06-22T10:34:55;7.32;;;6.22;;
56419;SDS011;42323;52.170;7.538;2023-06-22T10:37:24;7.57;;;6.78;;
56419;SDS011;42323;52.170;7.538;2023-06-22T10:39:51;9.18;;;7.30;;
56419;SDS011;42323;52.170;7.538;2023-06-22T10:42:18;7.90;;;7.07;;
56419;SDS011;42323;52.170;7.538;2023-06-22T10:44:44;8.90;;;7.53;;
56419;SDS011;42323;52.170;7.538;2023-06-22T10:47:11;9.38;;;7.43;;
56419;SDS011;42323;52.170;7.538;2023-06-22T10:49:38;7.40;;;6.60;;
56419;SDS011;42323;52.170;7.538;2023-06-22T10:52:08;7.80;;;6.70;;
56419;SDS011;42323;52.170;7.538;2023-06-22T10:54:35;7.53;;;6.72;;
56419;SDS011;42323;52.170;7.538;2023-06-22T10:57:29;7.63;;;6.60;;
56419;SDS011;42323;52.170;7.538;2023-06-22T11:00:01;6.97;;;6.07;;
56419;SDS011;42323;52.170;7.538;2023-06-22T11:02:31;9.90;;;7.28;;
56419;SDS011;42323;52.170;7.538;2023-06-22T11:05:13;10.13;;;7.00;;
56419;SDS011;42323;52.170;7.538;2023-06-22T11:07:43;8.00;;;7.07;;
56419;SDS011;42323;52.170;7.538;2023-06-22T11:10:17;10.23;;;7.63;;
56419;SDS011;42323;52.170;7.538;2023-06-22T11:12:54;8.55;;;6.13;;
56419;SDS011;42323;52.170;7.538;2023-06-22T11:15:22;7.80;;;6.57;;
56419;SDS011;42323;52.170;7.538;2023-06-22T11:17:49;7.97;;;7.00;;
56419;SDS011;42323;52.170;7.538;2023-06-22T11:20:18;8.65;;;7.35;;
56419;SDS011;42323;52.170;7.538;2023-06-22T11:22:45;10.18;;;7.82;;
56419;SDS011;42323;52.170;7.538;2023-06-22T11:25:11;7.45;;;6.25;;
56419;SDS011;42323;52.170;7.538;2023-06-22T11:27:38;8.07;;;6.32;;
56419;SDS011;42323;52.170;7.538;2023-06-22T11:30:05;8.05;;;6.97;;
56419;SDS011;42323;52.170;7.538;2023-06-22T11:32:33;8.93;;;7.03;;
56419;SDS011;42323;52.170;7.538;2023-06-22T11:35:00;9.43;;;7.47;;
56419;SDS011;42323;52.170;7.538;2023-06-22T11:37:27;8.60;;;7.25;;
56419;SDS011;42323;52.170;7.538;2023-06-22T11:39:53;10.07;;;8.18;;
56419;SDS011;42323;52.170;7.538;2023-06-22T11:42:31;9.05;;;7.63;;
56419;SDS011;42323;52.170;7.538;2023-06-22T11:44:58;8.00;;;6.90;;
56419;SDS011;42323;52.170;7.538;2023-06-22T11:47:25;8.00;;;7.07;;
56419;SDS011;42323;52.170;7.538;2023-06-22T11:49:51;7.00;;;6.30;;
56419;SDS011;42323;52.170;7.538;2023-06-22T11:52:18;7.80;;;6.57;;
56419;SDS011;42323;52.170;7.538;2023-06-22T11:54:45;9.57;;;7.40;;
56419;SDS011;42323;52.170;7.538;2023-06-22T11:57:12;8.23;;;6.93;;
56419;SDS011;42323;52.170;7.538;2023-06-22T11:59:39;7.90;;;6.57;;
56419;SDS011;42323;52.170;7.538;2023-06-22T12:02:09;9.32;;;7.38;;
56419;SDS011;42323;52.170;7.538;2023-06-22T12:05:21;8.45;;;7.30;;
56419;SDS011;42323;52.170;7.538;2023-06-22T12:07:57;7.72;;;6.60;;
56419;SDS011;42323;52.170;7.538;2023-06-22T12:10:35;8.70;;;7.20;;
56419;SDS011;42323;52.170;7.538;2023-06-22T12:13:01;6.90;;;6.17;;
56419;SDS011;42323;52.170;7.538;2023-06-22T12:18:47;6.95;;;6.18;;
56419;SDS011;42323;52.170;7.538;2023-06-22T12:21:13;8.50;;;6.88;;
56419;SDS011;42323;52.170;7.538;2023-06-22T12:23:40;7.35;;;6.22;;
56419;SDS011;42323;52.170;7.538;2023-06-22T12:26:07;7.50;;;6.70;;
56419;SDS011;42323;52.170;7.538;2023-06-22T12:28:33;10.00;;;6.90;;
56419;SDS011;42323;52.170;7.538;2023-06-22T12:31:00;6.93;;;6.22;;
56419;SDS011;42323;52.170;7.538;2023-06-22T12:33:27;8.32;;;6.50;;
56419;SDS011;42323;52.170;7.538;2023-06-22T12:35:59;10.07;;;7.07;;
56419;SDS011;42323;52.170;7.538;2023-06-22T12:38:43;8.57;;;7.10;;
56419;SDS011;42323;52.170;7.538;2023-06-22T12:41:10;9.38;;;7.13;;
56419;SDS011;42323;52.170;7.538;2023-06-22T12:43:36;8.23;;;6.85;;
56419;SDS011;42323;52.170;7.538;2023-06-22T12:46:03;8.35;;;7.18;;
56419;SDS011;42323;52.170;7.538;2023-06-22T12:48:30;10.80;;;7.72;;
56419;SDS011;42323;52.170;7.538;2023-06-22T12:50:56;8.38;;;7.25;;
56419;SDS011;42323;52.170;7.538;2023-06-22T12:53:23;9.38;;;7.63;;
56419;SDS011;42323;52.170;7.538;2023-06-22T12:55:50;10.05;;;7.50;;
56419;SDS011;42323;52.170;7.538;2023-06-22T12:58:16;8.52;;;7.38;;
56419;SDS011;42323;52.170;7.538;2023-06-22T13:00:43;9.50;;;8.05;;
56419;SDS011;42323;52.170;7.538;2023-06-22T13:03:09;9.32;;;7.32;;
56419;SDS011;42323;52.170;7.538;2023-06-22T13:05:36;8.80;;;7.30;;
56419;SDS011;42323;52.170;7.538;2023-06-22T13:08:04;10.50;;;8.50;;
56419;SDS011;42323;52.170;7.538;2023-06-22T13:10:31;10.85;;;7.80;;
56419;SDS011;42323;52.170;7.538;2023-06-22T13:12:58;8.90;;;7.30;;
56419;SDS011;42323;52.170;7.538;2023-06-22T13:15:29;9.02;;;7.80;;
56419;SDS011;42323;52.170;7.538;2023-06-22T13:20:28;9.48;;;8.35;;
56419;SDS011;42323;52.170;7.538;2023-06-22T13:22:55;10.75;;;9.25;;
56419;SDS011;42323;52.170;7.538;2023-06-22T13:25:23;11.05;;;8.68;;
56419;SDS011;42323;52.170;7.538;2023-06-22T13:27:52;10.48;;;8.82;;
56419;SDS011;42323;52.170;7.538;2023-06-22T13:30:19;13.05;;;9.40;;
56419;SDS011;42323;52.170;7.538;2023-06-22T13:32:46;12.85;;;10.13;;
56419;SDS011;42323;52.170;7.538;2023-06-22T13:35:15;15.20;;;11.20;;
56419;SDS011;42323;52.170;7.538;2023-06-22T13:37:42;13.18;;;10.18;;
56419;SDS011;42323;52.170;7.538;2023-06-22T13:40:08;11.75;;;10.48;;
56419;SDS011;42323;52.170;7.538;2023-06-22T13:42:35;13.10;;;11.07;;
56419;SDS011;42323;52.170;7.538;2023-06-22T13:45:02;14.70;;;11.70;;
56419;SDS011;42323;52.170;7.538;2023-06-22T13:47:30;13.82;;;11.50;;
56419;SDS011;42323;52.170;7.538;2023-06-22T13:52:49;14.75;;;12.20;;
56419;SDS011;42323;52.170;7.538;2023-06-22T13:55:15;18.73;;;14.35;;
56419;SDS011;42323;52.170;7.538;2023-06-22T13:57:42;16.40;;;13.13;;
56419;SDS011;42323;52.170;7.538;2023-06-22T14:00:09;14.30;;;12.17;;
56419;SDS011;42323;52.170;7.538;2023-06-22T14:02:36;17.77;;;13.55;;
56419;SDS011;42323;52.170;7.538;2023-06-22T14:05:02;13.93;;;11.90;;
56419;SDS011;42323;52.170;7.538;2023-06-22T14:07:29;16.67;;;13.00;;
56419;SDS011;42323;52.170;7.538;2023-06-22T14:09:56;14.32;;;12.07;;
56419;SDS011;42323;52.170;7.538;2023-06-22T14:12:24;16.08;;;12.63;;
56419;SDS011;42323;52.170;7.538;2023-06-22T14:14:50;14.43;;;11.50;;
56419;SDS011;42323;52.170;7.538;2023-06-22T14:17:17;14.68;;;11.70;;
56419;SDS011;42323;52.170;7.538;2023-06-22T14:19:44;13.75;;;11.23;;
56419;SDS011;42323;52.170;7.538;2023-06-22T14:22:10;13.38;;;11.13;;
56419;SDS011;42323;52.170;7.538;2023-06-22T14:24:37;12.15;;;10.80;;
56419;SDS011;42323;52.170;7.538;2023-06-22T14:27:03;12.65;;;10.82;;
56419;SDS011;42323;52.170;7.538;2023-06-22T14:29:34;12.95;;;10.13;;
56419;SDS011;42323;52.170;7.538;2023-06-22T14:32:01;11.80;;;9.90;;
56419;SDS011;42323;52.170;7.538;2023-06-22T14:34:28;12.18;;;9.75;;
56419;SDS011;42323;52.170;7.538;2023-06-22T14:36:54;10.57;;;9.48;;
56419;SDS011;42323;52.170;7.538;2023-06-22T14:39:21;11.48;;;9.52;;
56419;SDS011;42323;52.170;7.538;2023-06-22T14:41:48;10.80;;;9.70;;
56419;SDS011;42323;52.170;7.538;2023-06-22T14:44:14;10.25;;;8.95;;
56419;SDS011;42323;52.170;7.538;2023-06-22T14:46:41;10.63;;;8.93;;
56419;SDS011;42323;52.170;7.538;2023-06-22T14:49:08;11.95;;;9.77;;
56419;SDS011;42323;52.170;7.538;2023-06-22T14:51:34;11.32;;;9.23;;
56419;SDS011;42323;52.170;7.538;2023-06-22T14:54:01;11.25;;;9.05;;
56419;SDS011;42323;52.170;7.538;2023-06-22T14:56:27;10.03;;;8.30;;
56419;SDS011;42323;52.170;7.538;2023-06-22T14:58:54;11.03;;;9.10;;
56419;SDS011;42323;52.170;7.538;2023-06-22T15:01:23;9.68;;;8.55;;
56419;SDS011;42323;52.170;7.538;2023-06-22T15:03:50;11.40;;;9.25;;
56419;SDS011;42323;52.170;7.538;2023-06-22T15:06:16;12.95;;;10.02;;
56419;SDS011;42323;52.170;7.538;2023-06-22T15:08:43;10.80;;;9.05;;
56419;SDS011;42323;52.170;7.538;2023-06-22T15:11:10;11.27;;;9.40;;
56419;SDS011;42323;52.170;7.538;2023-06-22T15:13:40;10.32;;;8.55;;
56419;SDS011;42323;52.170;7.538;2023-06-22T15:16:08;11.73;;;9.70;;
56419;SDS011;42323;52.170;7.538;2023-06-22T15:18:35;10.63;;;8.97;;